createdAt,value
2022-09-02T00:02:26.289Z,100.00
2022-09-02T00:04:53.964Z,100.00
2022-09-02T00:07:21.629Z,100.00
2022-09-02T00:09:49.276Z,100.00
2022-09-02T00:12:16.951Z,100.00
2022-09-02T00:14:44.589Z,100.00
2022-09-02T00:17:13.689Z,100.00
2022-09-02T00:19:41.499Z,100.00
2022-09-02T00:22:09.403Z,100.00
2022-09-02T00:24:37.258Z,100.00
2022-09-02T00:27:05.317Z,100.00
2022-09-02T00:29:33.016Z,100.00
2022-09-02T00:32:00.958Z,100.00
2022-09-02T00:34:30.106Z,100.00
2022-09-02T00:36:57.817Z,100.00
2022-09-02T00:39:26.103Z,100.00
2022-09-02T00:41:54.090Z,100.00
2022-09-02T00:44:22.472Z,100.00
2022-09-02T00:46:50.110Z,100.00
2022-09-02T00:49:24.223Z,100.00
2022-09-02T00:51:57.691Z,100.00
2022-09-02T00:54:29.073Z,100.00
2022-09-02T00:56:57.333Z,100.00
2022-09-02T00:59:31.362Z,100.00
2022-09-02T01:01:59.118Z,100.00
2022-09-02T01:04:27.533Z,100.00
2022-09-02T01:06:56.858Z,100.00
2022-09-02T01:09:24.517Z,100.00
2022-09-02T01:11:53.504Z,100.00
2022-09-02T01:14:21.223Z,100.00
2022-09-02T01:16:52.490Z,100.00
2022-09-02T01:19:24.969Z,100.00
2022-09-02T01:21:55.169Z,100.00
2022-09-02T01:24:26.549Z,100.00
2022-09-02T01:26:56.576Z,100.00
2022-09-02T01:29:25.452Z,100.00
2022-09-02T01:31:53.661Z,100.00
2022-09-02T01:34:22.806Z,100.00
2022-09-02T01:36:50.460Z,100.00
2022-09-02T01:39:19.473Z,100.00
2022-09-02T01:41:47.306Z,100.00
2022-09-02T01:44:16.098Z,100.00
2022-09-02T01:46:43.808Z,100.00
2022-09-02T01:49:11.510Z,100.00
2022-09-02T01:51:39.139Z,100.00
2022-09-02T01:54:07.295Z,100.00
2022-09-02T01:56:36.327Z,100.00
2022-09-02T01:59:04.586Z,100.00
2022-09-02T02:01:32.397Z,100.00
2022-09-02T02:04:01.018Z,100.00
2022-09-02T02:06:29.052Z,100.00
2022-09-02T02:08:56.700Z,100.00
2022-09-02T02:11:26.239Z,100.00
2022-09-02T02:13:55.279Z,100.00
2022-09-02T02:16:23.061Z,100.00
2022-09-02T02:18:50.775Z,100.00
2022-09-02T02:21:18.456Z,100.00
2022-09-02T02:23:48.539Z,100.00
2022-09-02T02:26:16.446Z,100.00
2022-09-02T02:28:44.480Z,100.00
2022-09-02T02:31:13.846Z,100.00
2022-09-02T02:33:41.702Z,100.00
2022-09-02T02:36:10.210Z,100.00
2022-09-02T02:38:40.000Z,100.00
2022-09-02T02:41:08.370Z,100.00
2022-09-02T02:43:36.992Z,100.00
2022-09-02T02:46:05.494Z,100.00
2022-09-02T02:48:35.462Z,100.00
2022-09-02T02:51:03.793Z,100.00
2022-09-02T02:53:32.200Z,100.00
2022-09-02T02:56:00.481Z,100.00
2022-09-02T02:58:28.227Z,100.00
2022-09-02T03:00:56.356Z,100.00
2022-09-02T03:03:24.354Z,100.00
2022-09-02T03:05:53.793Z,100.00
2022-09-02T03:08:22.319Z,100.00
2022-09-02T03:10:54.296Z,100.00
2022-09-02T03:13:22.945Z,100.00
2022-09-02T03:15:51.639Z,100.00
2022-09-02T03:18:20.146Z,100.00
2022-09-02T03:20:47.859Z,100.00
2022-09-02T03:23:17.928Z,100.00
2022-09-02T03:25:46.654Z,100.00
2022-09-02T03:28:15.362Z,100.00
2022-09-02T03:30:43.622Z,100.00
2022-09-02T03:33:11.294Z,100.00
2022-09-02T03:35:41.014Z,100.00
2022-09-02T03:38:09.762Z,100.00
2022-09-02T03:40:40.127Z,100.00
2022-09-02T03:43:07.893Z,100.00
2022-09-02T03:45:35.973Z,100.00
2022-09-02T03:48:04.495Z,100.00
2022-09-02T03:50:34.166Z,100.00
2022-09-02T03:53:02.175Z,100.00
2022-09-02T03:55:30.647Z,100.00
2022-09-02T03:58:00.310Z,100.00
2022-09-02T04:00:30.409Z,100.00
2022-09-02T04:02:58.324Z,100.00
2022-09-02T04:05:26.350Z,100.00
2022-09-02T04:07:53.845Z,100.00
2022-09-02T04:10:22.118Z,100.00
2022-09-02T04:12:50.636Z,100.00
2022-09-02T04:15:21.434Z,100.00
2022-09-02T04:17:49.266Z,100.00
2022-09-02T04:20:17.985Z,100.00
2022-09-02T04:22:45.713Z,100.00
2022-09-02T04:25:13.725Z,100.00
2022-09-02T04:27:41.644Z,100.00
2022-09-02T04:30:10.822Z,100.00
2022-09-02T04:32:40.903Z,100.00
2022-09-02T04:35:09.577Z,100.00
2022-09-02T04:37:37.349Z,100.00
2022-09-02T04:40:05.850Z,100.00
2022-09-02T04:42:34.281Z,100.00
2022-09-02T04:45:02.001Z,100.00
2022-09-02T04:47:29.597Z,100.00
2022-09-02T04:49:58.692Z,100.00
2022-09-02T04:52:27.059Z,100.00
2022-09-02T04:54:54.736Z,100.00
2022-09-02T04:57:22.577Z,100.00
2022-09-02T04:59:50.218Z,100.00
2022-09-02T05:02:20.265Z,100.00
2022-09-02T05:04:48.057Z,100.00
2022-09-02T05:07:17.124Z,100.00
2022-09-02T05:09:45.027Z,100.00
2022-09-02T05:12:13.198Z,100.00
2022-09-02T05:14:40.983Z,100.00
2022-09-02T05:17:08.674Z,100.00
2022-09-02T05:19:36.354Z,100.00
2022-09-02T05:22:04.552Z,100.00
2022-09-02T05:24:33.632Z,100.00
2022-09-02T05:27:01.302Z,100.00
2022-09-02T05:29:29.058Z,100.00
2022-09-02T05:31:56.661Z,100.00
2022-09-02T05:34:24.814Z,100.00
2022-09-02T05:36:52.600Z,100.00
2022-09-02T05:39:20.370Z,100.00
2022-09-02T05:41:49.465Z,100.00
2022-09-02T05:44:17.104Z,100.00
2022-09-02T05:46:48.696Z,100.00
2022-09-02T05:49:18.246Z,100.00
2022-09-02T05:51:48.802Z,100.00
2022-09-02T05:54:19.157Z,100.00
2022-09-02T05:56:53.706Z,100.00
2022-09-02T05:59:21.978Z,100.00
2022-09-02T06:01:50.078Z,100.00
2022-09-02T06:04:18.201Z,100.00
2022-09-02T06:06:45.878Z,100.00
2022-09-02T06:09:16.685Z,99.44
2022-09-02T06:11:49.215Z,96.42
2022-09-02T06:14:20.721Z,95.52
2022-09-02T06:16:50.347Z,95.02
2022-09-02T06:19:20.405Z,92.84
2022-09-02T06:21:48.971Z,90.42
2022-09-02T06:24:16.794Z,90.30
2022-09-02T06:26:45.433Z,88.71
2022-09-02T06:29:13.679Z,86.74
2022-09-02T06:31:44.319Z,83.39
2022-09-02T06:34:14.651Z,81.11
2022-09-02T06:36:43.270Z,79.21
2022-09-02T06:39:13.359Z,76.82
2022-09-02T06:41:42.577Z,73.45
2022-09-02T06:44:12.318Z,70.11
2022-09-02T06:46:47.307Z,69.66
2022-09-02T06:49:16.238Z,62.86
2022-09-02T06:51:45.514Z,57.46
2022-09-02T06:54:16.374Z,58.61
2022-09-02T06:56:48.731Z,57.60
2022-09-02T06:59:17.184Z,54.65
2022-09-02T07:01:47.363Z,52.60
2022-09-02T07:04:33.331Z,52.14
2022-09-02T07:07:01.092Z,54.96
2022-09-02T07:09:31.138Z,51.19
2022-09-02T07:12:04.276Z,49.70
2022-09-02T07:14:36.915Z,48.94
2022-09-02T07:17:06.875Z,47.40
2022-09-02T07:19:34.823Z,45.34
2022-09-02T07:22:04.002Z,48.32
2022-09-02T07:24:31.718Z,47.38
2022-09-02T07:26:59.434Z,47.40
2022-09-02T07:29:27.457Z,45.00
2022-09-02T07:31:55.166Z,43.42
2022-09-02T07:34:24.275Z,43.19
2022-09-02T07:36:52.561Z,41.99
2022-09-02T07:39:20.590Z,42.64
2022-09-02T07:41:50.271Z,43.37
2022-09-02T07:44:18.947Z,43.29
2022-09-02T07:46:46.939Z,42.79
2022-09-02T07:49:15.767Z,42.11
2022-09-02T07:51:49.440Z,41.97
2022-09-02T07:54:18.809Z,41.57
2022-09-02T07:56:46.604Z,41.73
2022-09-02T07:59:14.247Z,42.38
2022-09-02T08:04:18.643Z,41.05
2022-09-02T08:06:47.914Z,40.60
2022-09-02T08:09:15.701Z,39.05
2022-09-02T08:11:46.458Z,40.27
2022-09-02T08:14:18.047Z,41.94
2022-09-02T08:16:47.072Z,42.39
2022-09-02T08:19:15.719Z,40.77
2022-09-02T08:21:43.384Z,40.80
2022-09-02T08:24:12.505Z,41.82
2022-09-02T08:26:40.174Z,42.34
2022-09-02T08:29:09.603Z,42.04
2022-09-02T08:31:38.907Z,40.66
2022-09-02T08:34:07.029Z,40.22
2022-09-02T08:36:34.946Z,39.83
2022-09-02T08:39:04.601Z,40.09
2022-09-02T08:41:41.249Z,39.64
2022-09-02T08:44:11.537Z,38.69
2022-09-02T08:46:39.499Z,40.17
2022-09-02T08:49:11.781Z,40.21
2022-09-02T08:51:51.024Z,40.89
2022-09-02T08:54:27.293Z,40.56
2022-09-02T08:56:58.926Z,40.42
2022-09-02T08:59:29.331Z,40.46
2022-09-02T09:02:13.600Z,40.39
2022-09-02T09:05:12.860Z,39.44
2022-09-02T09:07:54.607Z,40.20
2022-09-02T09:10:29.729Z,39.06
2022-09-02T09:13:20.987Z,39.12
2022-09-02T09:15:55.229Z,39.23
2022-09-02T09:18:32.167Z,38.60
2022-09-02T09:20:59.932Z,37.53
2022-09-02T09:23:34.233Z,36.91
2022-09-02T09:26:08.429Z,38.43
2022-09-02T09:28:43.514Z,36.59
2022-09-02T09:31:15.062Z,35.09
2022-09-02T09:33:56.471Z,35.38
2022-09-02T09:36:45.026Z,34.55
2022-09-02T09:39:20.067Z,34.39
2022-09-02T09:41:49.611Z,35.37
2022-09-02T09:44:43.229Z,35.34
2022-09-02T09:47:17.932Z,34.35
2022-09-02T09:49:46.983Z,33.97
2022-09-02T09:52:24.497Z,33.91
2022-09-02T09:55:12.357Z,34.25
2022-09-02T09:57:44.682Z,34.74
2022-09-02T10:00:26.732Z,34.14
2022-09-02T10:02:57.881Z,33.98
2022-09-02T10:05:33.050Z,33.95
2022-09-02T10:08:03.259Z,33.53
2022-09-02T10:10:33.430Z,31.93
2022-09-02T10:16:12.207Z,32.29
2022-09-02T10:18:44.849Z,31.52
2022-09-02T10:21:27.965Z,31.67
2022-09-02T10:24:05.700Z,31.00
2022-09-02T10:27:23.754Z,30.04
2022-09-02T10:29:58.940Z,30.93
2022-09-02T10:32:43.236Z,29.85
2022-09-02T10:35:19.486Z,30.14
2022-09-02T10:38:01.846Z,29.76
2022-09-02T10:40:37.464Z,30.58
2022-09-02T10:43:07.570Z,31.06
2022-09-02T10:46:01.257Z,30.87
2022-09-02T10:48:40.775Z,31.47
2022-09-02T10:51:17.486Z,30.62
2022-09-02T10:54:17.642Z,30.59
2022-09-02T10:56:50.868Z,29.95
2022-09-02T10:59:23.001Z,30.25
2022-09-02T11:01:57.101Z,29.29
2022-09-02T11:04:38.877Z,29.14
2022-09-02T11:07:10.768Z,29.71
2022-09-02T11:09:42.411Z,28.60
2022-09-02T11:12:16.708Z,29.30
2022-09-02T11:14:56.253Z,28.85
2022-09-02T11:17:30.788Z,28.60
2022-09-02T11:20:09.488Z,28.44
2022-09-02T11:22:46.065Z,28.62
2022-09-02T11:25:18.675Z,27.65
2022-09-02T11:27:50.348Z,28.91
2022-09-02T11:30:21.509Z,27.92
2022-09-02T11:32:56.566Z,27.45
2022-09-02T11:35:27.942Z,28.19
2022-09-02T11:38:02.261Z,28.47
2022-09-02T11:40:39.096Z,27.13
2022-09-02T11:43:28.983Z,27.12
2022-09-02T11:46:28.319Z,27.71
2022-09-02T11:49:11.419Z,27.77
2022-09-02T11:52:04.389Z,26.29
2022-09-02T11:54:37.258Z,26.98
2022-09-02T11:57:07.298Z,27.12
2022-09-02T12:00:10.703Z,26.31
2022-09-02T12:02:46.134Z,26.64
2022-09-02T12:06:06.097Z,26.49
2022-09-02T12:09:09.413Z,27.14
2022-09-02T12:11:50.815Z,27.25
2022-09-02T12:15:07.448Z,27.05
2022-09-02T12:17:40.725Z,27.23
2022-09-02T12:20:11.148Z,26.70
2022-09-02T12:22:39.711Z,26.21
2022-09-02T12:25:22.069Z,26.40
2022-09-02T12:28:10.459Z,27.24
2022-09-02T12:30:56.448Z,27.39
2022-09-02T12:33:30.341Z,27.23
2022-09-02T12:35:59.069Z,27.77
2022-09-02T12:38:31.395Z,27.47
2022-09-02T12:41:13.721Z,27.18
2022-09-02T12:43:48.569Z,26.80
2022-09-02T12:46:22.856Z,26.57
2022-09-02T12:48:56.173Z,26.87
2022-09-02T12:51:38.594Z,26.92
2022-09-02T12:54:07.265Z,26.48
2022-09-02T12:56:34.843Z,27.35
2022-09-02T12:59:03.778Z,26.57
2022-09-02T13:01:38.553Z,26.50
2022-09-02T13:04:28.009Z,26.45
2022-09-02T13:07:21.773Z,26.49
2022-09-02T13:09:56.614Z,27.13
2022-09-02T13:12:39.027Z,27.61
2022-09-02T13:15:23.046Z,26.87
2022-09-02T13:18:03.742Z,26.97
2022-09-02T13:20:44.926Z,27.19
2022-09-02T13:23:31.203Z,26.82
2022-09-02T13:26:23.101Z,26.03
2022-09-02T13:29:18.086Z,26.46
2022-09-02T13:32:01.405Z,26.35
2022-09-02T13:34:29.490Z,26.06
2022-09-02T13:36:57.188Z,27.04
2022-09-02T13:39:26.390Z,26.38
2022-09-02T13:41:54.462Z,26.48
2022-09-02T13:44:23.069Z,26.13
2022-09-02T13:46:51.979Z,26.44
2022-09-02T13:49:27.704Z,25.44
2022-09-02T13:51:56.706Z,26.53
2022-09-02T13:54:34.467Z,26.86
2022-09-02T13:57:02.939Z,26.69
2022-09-02T13:59:38.288Z,26.13
2022-09-02T14:02:23.810Z,26.07
2022-09-02T14:04:55.861Z,25.80
2022-09-02T14:07:27.251Z,25.85
2022-09-02T14:09:58.782Z,26.16
2022-09-02T14:12:26.942Z,25.73
2022-09-02T14:14:54.818Z,25.68
2022-09-02T14:17:23.573Z,25.80
2022-09-02T14:19:51.383Z,25.65
2022-09-02T14:22:27.717Z,25.71
2022-09-02T14:24:55.457Z,25.96
2022-09-02T14:27:24.094Z,26.02
2022-09-02T14:29:55.576Z,25.91
2022-09-02T14:32:24.062Z,25.59
2022-09-02T14:35:06.415Z,24.96
2022-09-02T14:37:35.583Z,25.43
2022-09-02T14:40:06.963Z,24.56
2022-09-02T14:42:35.196Z,25.75
2022-09-02T14:45:05.638Z,25.66
2022-09-02T14:47:37.966Z,25.74
2022-09-02T14:50:05.885Z,25.41
2022-09-02T14:52:36.507Z,25.85
2022-09-02T14:55:06.261Z,25.43
2022-09-02T14:57:35.595Z,25.70
2022-09-02T15:00:05.686Z,25.96
2022-09-02T15:02:34.569Z,25.82
2022-09-02T15:05:03.196Z,26.24
2022-09-02T15:07:30.737Z,25.75
2022-09-02T15:09:59.639Z,25.90
2022-09-02T15:12:29.557Z,25.97
2022-09-02T15:14:57.537Z,25.98
2022-09-02T15:17:25.335Z,26.06
2022-09-02T15:19:53.114Z,26.11
2022-09-02T15:22:21.079Z,26.45
2022-09-02T15:24:49.180Z,26.36
2022-09-02T15:27:21.600Z,26.77
2022-09-02T15:29:49.466Z,26.51
2022-09-02T15:32:17.208Z,26.70
2022-09-02T15:34:44.791Z,26.76
2022-09-02T15:37:13.185Z,26.52
2022-09-02T15:39:41.216Z,26.58
2022-09-02T15:42:08.854Z,26.43
2022-09-02T15:44:37.722Z,26.80
2022-09-02T15:47:05.249Z,27.21
2022-09-02T15:49:32.756Z,27.64
2022-09-02T15:52:00.473Z,27.20
2022-09-02T15:54:27.956Z,27.16
2022-09-02T15:56:56.451Z,26.96
2022-09-02T15:59:24.014Z,26.67
2022-09-02T16:01:55.110Z,27.34
2022-09-02T16:04:23.331Z,27.56
2022-09-02T16:06:52.221Z,27.98
2022-09-02T16:09:20.373Z,27.71
2022-09-02T16:11:49.163Z,28.09
2022-09-02T16:14:21.002Z,27.65
2022-09-02T16:16:49.767Z,28.38
2022-09-02T16:19:21.411Z,27.69
2022-09-02T16:21:48.964Z,28.43
2022-09-02T16:24:18.045Z,28.61
2022-09-02T16:26:45.544Z,28.57
2022-09-02T16:29:14.627Z,27.91
2022-09-02T16:31:43.166Z,28.27
2022-09-02T16:34:11.753Z,28.47
2022-09-02T16:36:41.534Z,28.58
2022-09-02T16:39:10.613Z,28.85
2022-09-02T16:41:38.665Z,28.90
2022-09-02T16:44:08.098Z,29.14
2022-09-02T16:46:36.621Z,29.42
2022-09-02T16:49:04.629Z,29.65
2022-09-02T16:51:32.333Z,29.87
2022-09-02T16:54:02.202Z,29.56
2022-09-02T16:56:30.540Z,30.04
2022-09-02T16:59:01.119Z,29.97
2022-09-02T17:01:32.301Z,30.40
2022-09-02T17:04:00.348Z,30.62
2022-09-02T17:06:28.131Z,30.69
2022-09-02T17:08:55.698Z,30.89
2022-09-02T17:11:25.407Z,31.22
2022-09-02T17:13:53.486Z,31.12
2022-09-02T17:16:21.963Z,31.09
2022-09-02T17:18:49.515Z,31.39
2022-09-02T17:21:27.492Z,31.43
2022-09-02T17:23:55.490Z,31.48
2022-09-02T17:26:25.883Z,32.67
2022-09-02T17:28:54.774Z,32.28
2022-09-02T17:31:24.003Z,32.38
2022-09-02T17:33:51.801Z,32.46
2022-09-02T17:36:19.906Z,32.76
2022-09-02T17:38:47.378Z,32.60
2022-09-02T17:41:33.082Z,33.42
2022-09-02T17:44:01.875Z,33.51
2022-09-02T17:46:29.357Z,33.37
2022-09-02T17:49:15.915Z,33.46
2022-09-02T17:51:44.662Z,34.04
2022-09-02T17:54:13.251Z,34.30
2022-09-02T17:56:49.700Z,34.53
2022-09-02T17:59:25.338Z,34.59
2022-09-02T18:01:58.097Z,35.02
2022-09-02T18:04:32.048Z,35.82
2022-09-02T18:07:05.101Z,35.92
2022-09-02T18:09:32.815Z,35.71
2022-09-02T18:12:02.925Z,36.23
2022-09-02T18:14:36.918Z,36.59
2022-09-02T18:17:09.407Z,36.83
2022-09-02T18:19:45.945Z,37.48
2022-09-02T18:22:23.102Z,37.24
2022-09-02T18:25:00.090Z,37.55
2022-09-02T18:27:37.183Z,38.75
2022-09-02T18:30:07.882Z,39.50
2022-09-02T18:32:45.942Z,40.17
2022-09-02T18:35:21.415Z,40.84
2022-09-02T18:37:53.656Z,41.38
2022-09-02T18:40:28.491Z,42.14
2022-09-02T18:43:01.175Z,42.46
2022-09-02T18:45:33.183Z,42.94
2022-09-02T18:48:02.800Z,42.67
2022-09-02T18:50:49.293Z,43.47
2022-09-02T18:53:21.549Z,43.70
2022-09-02T18:55:49.684Z,44.43
2022-09-02T18:58:22.524Z,44.81
2022-09-02T19:00:55.380Z,44.78
2022-09-02T19:03:23.476Z,45.30
2022-09-02T19:05:51.251Z,45.70
2022-09-02T19:08:39.734Z,47.04
2022-09-02T19:11:09.410Z,47.79
2022-09-02T19:13:44.126Z,48.58
2022-09-02T19:16:13.384Z,48.37
2022-09-02T19:18:41.069Z,49.48
2022-09-02T19:21:10.434Z,49.74
2022-09-02T19:23:38.473Z,49.61
2022-09-02T19:26:06.722Z,50.10
2022-09-02T19:28:37.584Z,50.32
2022-09-02T19:31:05.526Z,50.75
2022-09-02T19:33:37.518Z,50.79
2022-09-02T19:36:05.498Z,50.24
2022-09-02T19:38:33.065Z,50.72
2022-09-02T19:41:03.063Z,51.04
2022-09-02T19:43:32.667Z,51.92
2022-09-02T19:46:01.267Z,52.96
2022-09-02T19:48:30.653Z,54.40
2022-09-02T19:51:00.161Z,54.78
2022-09-02T19:53:30.185Z,55.32
2022-09-02T19:55:58.920Z,54.79
2022-09-02T19:58:27.690Z,54.22
2022-09-02T20:00:56.980Z,55.14
2022-09-02T20:03:24.791Z,55.57
2022-09-02T20:05:53.526Z,55.29
2022-09-02T20:08:31.146Z,54.92
2022-09-02T20:11:01.295Z,53.89
2022-09-02T20:13:30.841Z,54.19
2022-09-02T20:15:58.619Z,55.16
2022-09-02T20:18:29.539Z,55.58
2022-09-02T20:20:59.913Z,55.21
2022-09-02T20:23:33.315Z,55.89
2022-09-02T20:26:12.252Z,56.42
2022-09-02T20:28:59.343Z,55.72
2022-09-02T20:31:42.360Z,55.84
2022-09-02T20:34:28.096Z,56.29
2022-09-02T20:37:05.711Z,55.96
2022-09-02T20:39:54.247Z,56.91
2022-09-02T20:42:48.639Z,58.24
2022-09-02T20:45:25.121Z,59.54
2022-09-02T20:48:02.144Z,60.76
2022-09-02T20:50:38.489Z,61.39
2022-09-02T20:53:13.810Z,60.65
2022-09-02T20:55:47.650Z,60.28
2022-09-02T20:58:29.239Z,61.01
2022-09-02T21:01:02.928Z,61.66
2022-09-02T21:03:40.926Z,61.93
2022-09-02T21:06:10.694Z,62.40
2022-09-02T21:08:42.055Z,62.57
2022-09-02T21:11:14.649Z,63.70
2022-09-02T21:13:47.100Z,64.72
2022-09-02T21:16:20.062Z,64.94
2022-09-02T21:18:51.135Z,64.72
2022-09-02T21:21:21.912Z,64.10
2022-09-02T21:23:51.950Z,63.08
2022-09-02T21:26:23.505Z,63.94
2022-09-02T21:28:55.475Z,64.14
2022-09-02T21:31:25.909Z,63.65
2022-09-02T21:33:55.586Z,65.81
2022-09-02T21:36:26.256Z,65.58
2022-09-02T21:38:55.658Z,65.18
2022-09-02T21:41:32.910Z,64.35
2022-09-02T21:44:06.194Z,64.66
2022-09-02T21:46:39.471Z,63.55
2022-09-02T21:49:14.610Z,64.26
2022-09-02T21:51:46.368Z,62.87
2022-09-02T21:54:27.390Z,63.34
2022-09-02T21:57:16.516Z,62.91
2022-09-02T21:59:50.501Z,61.07
2022-09-02T22:02:21.243Z,62.24
2022-09-02T22:04:56.225Z,63.06
2022-09-02T22:07:27.295Z,63.80
2022-09-02T22:10:03.131Z,63.86
2022-09-02T22:12:35.058Z,64.85
2022-09-02T22:15:07.697Z,65.24
2022-09-02T22:17:36.307Z,66.13
2022-09-02T22:20:07.441Z,66.06
2022-09-02T22:22:38.831Z,65.38
2022-09-02T22:25:08.172Z,65.11
2022-09-02T22:27:39.600Z,65.31
2022-09-02T22:30:09.005Z,64.33
2022-09-02T22:32:39.640Z,63.28
2022-09-02T22:35:10.798Z,63.21
2022-09-02T22:37:41.742Z,63.80
2022-09-02T22:40:11.302Z,64.09
2022-09-02T22:42:40.990Z,64.17
2022-09-02T22:45:27.923Z,62.52
2022-09-02T22:48:29.935Z,61.71
2022-09-02T22:51:19.243Z,62.10
2022-09-02T22:53:50.515Z,62.69
2022-09-02T22:56:20.027Z,62.73
2022-09-02T22:59:13.649Z,62.17
2022-09-02T23:01:44.767Z,60.27
2022-09-02T23:04:19.144Z,59.56
2022-09-02T23:06:46.597Z,59.69
2022-09-02T23:09:15.868Z,60.12
2022-09-02T23:11:49.221Z,60.65
2022-09-02T23:14:26.488Z,60.44
2022-09-02T23:17:03.656Z,61.48
2022-09-02T23:19:37.197Z,61.10
2022-09-02T23:22:10.015Z,60.52
2022-09-02T23:24:45.242Z,59.97
2022-09-02T23:27:17.757Z,59.46
2022-09-02T23:29:46.634Z,59.66
2022-09-02T23:32:32.967Z,59.71
2022-09-02T23:35:11.285Z,58.55
2022-09-02T23:37:46.689Z,57.62
2022-09-02T23:40:20.834Z,57.23
2022-09-02T23:42:48.649Z,56.40
2022-09-02T23:45:22.466Z,54.47
2022-09-02T23:47:59.535Z,54.18
2022-09-02T23:50:34.438Z,54.72
2022-09-02T23:53:06.633Z,54.21
2022-09-02T23:55:39.756Z,53.88
2022-09-02T23:58:15.953Z,54.13
